sensor_id;sensor_type;location;lat;lon;timestamp;P1;durP1;ratioP1;P2;durP2;ratioP2
23496;SDS011;11925;48.122;11.560;2022-09-09T00:01:00;4.13;;;1.10;;
23496;SDS011;11925;48.122;11.560;2022-09-09T00:03:39;3.03;;;0.90;;
23496;SDS011;11925;48.122;11.560;2022-09-09T00:06:14;3.03;;;1.20;;
23496;SDS011;11925;48.122;11.560;2022-09-09T00:08:48;4.57;;;1.00;;
23496;SDS011;11925;48.122;11.560;2022-09-09T00:11:26;2.40;;;1.17;;
23496;SDS011;11925;48.122;11.560;2022-09-09T00:14:01;3.35;;;1.27;;
23496;SDS011;11925;48.122;11.560;2022-09-09T00:16:38;2.97;;;1.10;;
23496;SDS011;11925;48.122;11.560;2022-09-09T00:19:15;3.13;;;1.27;;
23496;SDS011;11925;48.122;11.560;2022-09-09T00:21:51;3.80;;;1.25;;
23496;SDS011;11925;48.122;11.560;2022-09-09T00:24:29;1.80;;;1.17;;
23496;SDS011;11925;48.122;11.560;2022-09-09T00:27:06;4.70;;;1.20;;
23496;SDS011;11925;48.122;11.560;2022-09-09T00:29:41;2.05;;;1.17;;
23496;SDS011;11925;48.122;11.560;2022-09-09T00:32:14;1.67;;;1.10;;
23496;SDS011;11925;48.122;11.560;2022-09-09T00:34:47;1.88;;;1.33;;
23496;SDS011;11925;48.122;11.560;2022-09-09T00:37:17;1.67;;;1.20;;
23496;SDS011;11925;48.122;11.560;2022-09-09T00:39:47;2.22;;;1.20;;
23496;SDS011;11925;48.122;11.560;2022-09-09T00:42:20;6.25;;;1.20;;
23496;SDS011;11925;48.122;11.560;2022-09-09T00:44:53;1.83;;;1.17;;
23496;SDS011;11925;48.122;11.560;2022-09-09T00:47:38;2.75;;;1.38;;
23496;SDS011;11925;48.122;11.560;2022-09-09T00:53:11;1.50;;;1.10;;
23496;SDS011;11925;48.122;11.560;2022-09-09T00:55:53;3.35;;;1.02;;
23496;SDS011;11925;48.122;11.560;2022-09-09T00:58:28;2.75;;;1.13;;
23496;SDS011;11925;48.122;11.560;2022-09-09T01:00:57;2.50;;;1.40;;
23496;SDS011;11925;48.122;11.560;2022-09-09T01:03:33;1.60;;;1.23;;
23496;SDS011;11925;48.122;11.560;2022-09-09T01:06:13;1.70;;;1.00;;
23496;SDS011;11925;48.122;11.560;2022-09-09T01:11:49;2.10;;;1.08;;
23496;SDS011;11925;48.122;11.560;2022-09-09T01:14:30;4.28;;;1.25;;
23496;SDS011;11925;48.122;11.560;2022-09-09T01:17:09;3.28;;;1.42;;
23496;SDS011;11925;48.122;11.560;2022-09-09T01:19:53;2.80;;;1.35;;
23496;SDS011;11925;48.122;11.560;2022-09-09T01:22:35;2.75;;;1.10;;
23496;SDS011;11925;48.122;11.560;2022-09-09T01:25:11;3.17;;;1.10;;
23496;SDS011;11925;48.122;11.560;2022-09-09T01:28:07;4.03;;;1.30;;
23496;SDS011;11925;48.122;11.560;2022-09-09T01:30:38;3.97;;;1.30;;
23496;SDS011;11925;48.122;11.560;2022-09-09T01:33:13;2.75;;;1.00;;
23496;SDS011;11925;48.122;11.560;2022-09-09T01:35:43;1.60;;;1.00;;
23496;SDS011;11925;48.122;11.560;2022-09-09T01:38:16;2.00;;;1.15;;
23496;SDS011;11925;48.122;11.560;2022-09-09T01:40:48;6.88;;;1.10;;
23496;SDS011;11925;48.122;11.560;2022-09-09T01:43:23;1.58;;;1.05;;
23496;SDS011;11925;48.122;11.560;2022-09-09T01:45:53;2.60;;;1.20;;
23496;SDS011;11925;48.122;11.560;2022-09-09T01:48:24;2.00;;;0.98;;
23496;SDS011;11925;48.122;11.560;2022-09-09T01:51:01;1.45;;;1.05;;
23496;SDS011;11925;48.122;11.560;2022-09-09T01:53:29;2.42;;;1.30;;
23496;SDS011;11925;48.122;11.560;2022-09-09T01:56:01;3.63;;;1.20;;
23496;SDS011;11925;48.122;11.560;2022-09-09T01:58:45;2.13;;;1.08;;
23496;SDS011;11925;48.122;11.560;2022-09-09T02:01:23;2.88;;;1.05;;
23496;SDS011;11925;48.122;11.560;2022-09-09T02:04:05;2.08;;;1.13;;
23496;SDS011;11925;48.122;11.560;2022-09-09T02:06:39;2.70;;;1.33;;
23496;SDS011;11925;48.122;11.560;2022-09-09T02:09:19;3.35;;;1.30;;
23496;SDS011;11925;48.122;11.560;2022-09-09T02:11:52;1.65;;;0.90;;
23496;SDS011;11925;48.122;11.560;2022-09-09T02:14:36;1.83;;;1.10;;
23496;SDS011;11925;48.122;11.560;2022-09-09T02:17:09;2.42;;;1.20;;
23496;SDS011;11925;48.122;11.560;2022-09-09T02:20:04;1.92;;;1.10;;
23496;SDS011;11925;48.122;11.560;2022-09-09T02:22:43;1.90;;;1.13;;
23496;SDS011;11925;48.122;11.560;2022-09-09T02:25:18;2.25;;;1.27;;
23496;SDS011;11925;48.122;11.560;2022-09-09T02:27:52;1.58;;;1.10;;
23496;SDS011;11925;48.122;11.560;2022-09-09T02:30:21;2.88;;;1.35;;
23496;SDS011;11925;48.122;11.560;2022-09-09T02:32:56;3.80;;;1.25;;
23496;SDS011;11925;48.122;11.560;2022-09-09T02:35:46;4.00;;;1.48;;
23496;SDS011;11925;48.122;11.560;2022-09-09T02:38:20;2.75;;;1.05;;
23496;SDS011;11925;48.122;11.560;2022-09-09T02:41:07;1.92;;;1.13;;
23496;SDS011;11925;48.122;11.560;2022-09-09T02:43:35;1.58;;;1.13;;
23496;SDS011;11925;48.122;11.560;2022-09-09T02:46:12;3.42;;;1.10;;
23496;SDS011;11925;48.122;11.560;2022-09-09T02:48:55;4.43;;;1.13;;
23496;SDS011;11925;48.122;11.560;2022-09-09T02:51:35;2.30;;;1.10;;
23496;SDS011;11925;48.122;11.560;2022-09-09T02:54:16;3.15;;;1.20;;
23496;SDS011;11925;48.122;11.560;2022-09-09T02:56:52;1.90;;;0.98;;
23496;SDS011;11925;48.122;11.560;2022-09-09T02:59:31;2.28;;;1.08;;
23496;SDS011;11925;48.122;11.560;2022-09-09T03:02:01;1.65;;;1.10;;
23496;SDS011;11925;48.122;11.560;2022-09-09T03:04:31;1.67;;;1.23;;
23496;SDS011;11925;48.122;11.560;2022-09-09T03:06:59;2.20;;;1.20;;
23496;SDS011;11925;48.122;11.560;2022-09-09T03:09:30;2.40;;;1.30;;
23496;SDS011;11925;48.122;11.560;2022-09-09T03:11:59;3.58;;;1.23;;
23496;SDS011;11925;48.122;11.560;2022-09-09T03:14:30;2.13;;;1.00;;
23496;SDS011;11925;48.122;11.560;2022-09-09T03:16:59;3.85;;;1.00;;
23496;SDS011;11925;48.122;11.560;2022-09-09T03:19:36;2.08;;;1.00;;
23496;SDS011;11925;48.122;11.560;2022-09-09T03:22:08;1.42;;;1.02;;
23496;SDS011;11925;48.122;11.560;2022-09-09T03:24:40;3.63;;;1.20;;
23496;SDS011;11925;48.122;11.560;2022-09-09T03:27:08;1.60;;;1.02;;
23496;SDS011;11925;48.122;11.560;2022-09-09T03:29:37;1.55;;;0.90;;
23496;SDS011;11925;48.122;11.560;2022-09-09T03:32:10;2.55;;;1.10;;
23496;SDS011;11925;48.122;11.560;2022-09-09T03:34:41;2.13;;;1.15;;
23496;SDS011;11925;48.122;11.560;2022-09-09T03:37:11;3.60;;;1.08;;
23496;SDS011;11925;48.122;11.560;2022-09-09T03:39:40;1.73;;;1.00;;
23496;SDS011;11925;48.122;11.560;2022-09-09T03:42:11;2.55;;;1.20;;
23496;SDS011;11925;48.122;11.560;2022-09-09T03:44:40;2.78;;;1.27;;
23496;SDS011;11925;48.122;11.560;2022-09-09T03:47:11;2.95;;;1.08;;
23496;SDS011;11925;48.122;11.560;2022-09-09T03:49:41;3.08;;;1.15;;
23496;SDS011;11925;48.122;11.560;2022-09-09T03:52:09;1.77;;;0.93;;
23496;SDS011;11925;48.122;11.560;2022-09-09T03:54:39;1.83;;;0.95;;
23496;SDS011;11925;48.122;11.560;2022-09-09T03:57:09;1.75;;;1.00;;
23496;SDS011;11925;48.122;11.560;2022-09-09T03:59:38;3.28;;;0.88;;
23496;SDS011;11925;48.122;11.560;2022-09-09T04:02:07;3.33;;;1.25;;
23496;SDS011;11925;48.122;11.560;2022-09-09T04:04:35;2.03;;;1.00;;
23496;SDS011;11925;48.122;11.560;2022-09-09T04:07:05;1.80;;;1.00;;
23496;SDS011;11925;48.122;11.560;2022-09-09T04:09:34;3.33;;;1.10;;
23496;SDS011;11925;48.122;11.560;2022-09-09T04:12:02;3.17;;;1.02;;
23496;SDS011;11925;48.122;11.560;2022-09-09T04:14:31;2.35;;;1.10;;
23496;SDS011;11925;48.122;11.560;2022-09-09T04:16:59;1.40;;;0.88;;
23496;SDS011;11925;48.122;11.560;2022-09-09T04:19:27;2.20;;;1.02;;
23496;SDS011;11925;48.122;11.560;2022-09-09T04:21:56;3.28;;;1.13;;
23496;SDS011;11925;48.122;11.560;2022-09-09T04:24:25;1.58;;;0.82;;
23496;SDS011;11925;48.122;11.560;2022-09-09T04:26:56;2.08;;;0.90;;
23496;SDS011;11925;48.122;11.560;2022-09-09T04:29:24;1.83;;;1.00;;
23496;SDS011;11925;48.122;11.560;2022-09-09T04:31:53;2.85;;;1.20;;
23496;SDS011;11925;48.122;11.560;2022-09-09T04:34:21;2.58;;;1.17;;
23496;SDS011;11925;48.122;11.560;2022-09-09T04:36:51;2.90;;;1.05;;
23496;SDS011;11925;48.122;11.560;2022-09-09T04:39:19;6.45;;;1.20;;
23496;SDS011;11925;48.122;11.560;2022-09-09T04:41:49;6.25;;;1.42;;
23496;SDS011;11925;48.122;11.560;2022-09-09T04:44:22;1.33;;;1.15;;
23496;SDS011;11925;48.122;11.560;2022-09-09T04:46:51;3.45;;;1.40;;
23496;SDS011;11925;48.122;11.560;2022-09-09T04:49:19;2.63;;;1.30;;
23496;SDS011;11925;48.122;11.560;2022-09-09T04:51:48;4.45;;;1.20;;
23496;SDS011;11925;48.122;11.560;2022-09-09T04:54:17;2.72;;;1.13;;
23496;SDS011;11925;48.122;11.560;2022-09-09T04:56:46;3.33;;;1.23;;
23496;SDS011;11925;48.122;11.560;2022-09-09T04:59:15;2.60;;;1.05;;
23496;SDS011;11925;48.122;11.560;2022-09-09T05:01:47;3.63;;;1.05;;
23496;SDS011;11925;48.122;11.560;2022-09-09T05:04:17;4.18;;;1.30;;
23496;SDS011;11925;48.122;11.560;2022-09-09T05:06:46;3.65;;;1.52;;
23496;SDS011;11925;48.122;11.560;2022-09-09T05:09:14;7.18;;;2.90;;
23496;SDS011;11925;48.122;11.560;2022-09-09T05:11:44;4.82;;;1.80;;
23496;SDS011;11925;48.122;11.560;2022-09-09T05:14:31;6.22;;;2.15;;
23496;SDS011;11925;48.122;11.560;2022-09-09T05:17:00;7.23;;;2.30;;
23496;SDS011;11925;48.122;11.560;2022-09-09T05:19:28;4.75;;;1.65;;
23496;SDS011;11925;48.122;11.560;2022-09-09T05:21:57;3.85;;;1.60;;
23496;SDS011;11925;48.122;11.560;2022-09-09T05:24:35;2.85;;;1.45;;
23496;SDS011;11925;48.122;11.560;2022-09-09T05:27:03;5.85;;;3.10;;
23496;SDS011;11925;48.122;11.560;2022-09-09T05:29:34;8.55;;;4.78;;
23496;SDS011;11925;48.122;11.560;2022-09-09T05:32:04;5.60;;;2.50;;
23496;SDS011;11925;48.122;11.560;2022-09-09T05:34:34;5.22;;;2.28;;
23496;SDS011;11925;48.122;11.560;2022-09-09T05:37:04;5.20;;;2.08;;
23496;SDS011;11925;48.122;11.560;2022-09-09T05:39:33;3.67;;;1.85;;
23496;SDS011;11925;48.122;11.560;2022-09-09T05:42:03;4.53;;;1.70;;
23496;SDS011;11925;48.122;11.560;2022-09-09T05:44:34;2.47;;;1.70;;
23496;SDS011;11925;48.122;11.560;2022-09-09T05:47:03;1.93;;;1.30;;
23496;SDS011;11925;48.122;11.560;2022-09-09T05:49:33;3.03;;;1.60;;
23496;SDS011;11925;48.122;11.560;2022-09-09T05:52:02;4.47;;;1.58;;
23496;SDS011;11925;48.122;11.560;2022-09-09T05:54:30;3.03;;;1.60;;
23496;SDS011;11925;48.122;11.560;2022-09-09T05:56:59;3.15;;;1.50;;
23496;SDS011;11925;48.122;11.560;2022-09-09T05:59:28;2.88;;;1.40;;
23496;SDS011;11925;48.122;11.560;2022-09-09T06:02:00;3.10;;;1.80;;
23496;SDS011;11925;48.122;11.560;2022-09-09T06:04:33;3.40;;;1.40;;
23496;SDS011;11925;48.122;11.560;2022-09-09T06:07:02;4.03;;;1.60;;
23496;SDS011;11925;48.122;11.560;2022-09-09T06:09:31;10.57;;;1.75;;
23496;SDS011;11925;48.122;11.560;2022-09-09T06:12:00;5.18;;;1.88;;
23496;SDS011;11925;48.122;11.560;2022-09-09T06:14:32;3.70;;;1.30;;
23496;SDS011;11925;48.122;11.560;2022-09-09T06:17:03;6.50;;;1.55;;
23496;SDS011;11925;48.122;11.560;2022-09-09T06:19:31;5.65;;;1.58;;
23496;SDS011;11925;48.122;11.560;2022-09-09T06:22:00;8.52;;;1.60;;
23496;SDS011;11925;48.122;11.560;2022-09-09T06:24:31;7.28;;;1.40;;
23496;SDS011;11925;48.122;11.560;2022-09-09T06:27:01;2.65;;;1.23;;
23496;SDS011;11925;48.122;11.560;2022-09-09T06:32:03;4.20;;;1.58;;
23496;SDS011;11925;48.122;11.560;2022-09-09T06:34:32;3.92;;;1.40;;
23496;SDS011;11925;48.122;11.560;2022-09-09T06:37:01;2.08;;;1.20;;
23496;SDS011;11925;48.122;11.560;2022-09-09T06:39:45;5.82;;;1.40;;
23496;SDS011;11925;48.122;11.560;2022-09-09T06:42:15;3.90;;;1.52;;
23496;SDS011;11925;48.122;11.560;2022-09-09T06:44:43;3.30;;;1.20;;
23496;SDS011;11925;48.122;11.560;2022-09-09T06:47:19;2.08;;;1.20;;
23496;SDS011;11925;48.122;11.560;2022-09-09T06:49:48;1.45;;;0.70;;
23496;SDS011;11925;48.122;11.560;2022-09-09T06:52:17;4.55;;;1.05;;
23496;SDS011;11925;48.122;11.560;2022-09-09T06:54:46;2.15;;;1.30;;
23496;SDS011;11925;48.122;11.560;2022-09-09T06:57:15;1.95;;;1.08;;
23496;SDS011;11925;48.122;11.560;2022-09-09T07:00:04;1.77;;;1.20;;
23496;SDS011;11925;48.122;11.560;2022-09-09T07:02:35;2.90;;;1.20;;
23496;SDS011;11925;48.122;11.560;2022-09-09T07:05:07;3.40;;;1.20;;
23496;SDS011;11925;48.122;11.560;2022-09-09T07:07:37;2.42;;;1.27;;
23496;SDS011;11925;48.122;11.560;2022-09-09T07:10:08;3.28;;;1.30;;
23496;SDS011;11925;48.122;11.560;2022-09-09T07:12:37;3.08;;;1.25;;
23496;SDS011;11925;48.122;11.560;2022-09-09T07:17:41;3.28;;;1.10;;
23496;SDS011;11925;48.122;11.560;2022-09-09T07:20:10;2.60;;;1.00;;
23496;SDS011;11925;48.122;11.560;2022-09-09T07:22:39;2.00;;;1.10;;
23496;SDS011;11925;48.122;11.560;2022-09-09T07:25:09;4.95;;;1.00;;
23496;SDS011;11925;48.122;11.560;2022-09-09T07:27:37;3.40;;;1.10;;
23496;SDS011;11925;48.122;11.560;2022-09-09T07:30:08;2.88;;;1.00;;
23496;SDS011;11925;48.122;11.560;2022-09-09T07:32:47;3.42;;;0.95;;
23496;SDS011;11925;48.122;11.560;2022-09-09T07:35:18;2.97;;;1.00;;
23496;SDS011;11925;48.122;11.560;2022-09-09T07:37:47;3.33;;;1.17;;
23496;SDS011;11925;48.122;11.560;2022-09-09T07:40:18;3.42;;;1.30;;
23496;SDS011;11925;48.122;11.560;2022-09-09T07:42:48;4.55;;;1.10;;
23496;SDS011;11925;48.122;11.560;2022-09-09T07:45:17;1.63;;;0.85;;
23496;SDS011;11925;48.122;11.560;2022-09-09T07:47:45;3.55;;;1.15;;
23496;SDS011;11925;48.122;11.560;2022-09-09T07:50:16;2.22;;;0.90;;
23496;SDS011;11925;48.122;11.560;2022-09-09T07:52:45;4.25;;;1.00;;
23496;SDS011;11925;48.122;11.560;2022-09-09T07:55:13;3.65;;;1.00;;
23496;SDS011;11925;48.122;11.560;2022-09-09T07:57:43;2.80;;;1.00;;
23496;SDS011;11925;48.122;11.560;2022-09-09T08:00:12;2.38;;;1.13;;
23496;SDS011;11925;48.122;11.560;2022-09-09T08:02:48;1.90;;;0.90;;
23496;SDS011;11925;48.122;11.560;2022-09-09T08:05:17;3.78;;;1.00;;
23496;SDS011;11925;48.122;11.560;2022-09-09T08:07:45;1.27;;;0.80;;
23496;SDS011;11925;48.122;11.560;2022-09-09T08:10:14;2.45;;;1.17;;
23496;SDS011;11925;48.122;11.560;2022-09-09T08:15:36;3.08;;;0.80;;
23496;SDS011;11925;48.122;11.560;2022-09-09T08:18:05;1.75;;;0.90;;
23496;SDS011;11925;48.122;11.560;2022-09-09T08:20:35;1.10;;;0.93;;
23496;SDS011;11925;48.122;11.560;2022-09-09T08:23:05;1.10;;;0.75;;
23496;SDS011;11925;48.122;11.560;2022-09-09T08:25:34;3.75;;;0.93;;
23496;SDS011;11925;48.122;11.560;2022-09-09T08:28:03;2.40;;;0.90;;
23496;SDS011;11925;48.122;11.560;2022-09-09T08:30:31;2.70;;;0.90;;
23496;SDS011;11925;48.122;11.560;2022-09-09T08:33:00;2.58;;;1.00;;
23496;SDS011;11925;48.122;11.560;2022-09-09T08:35:30;2.55;;;1.02;;
23496;SDS011;11925;48.122;11.560;2022-09-09T08:37:59;2.35;;;0.98;;
23496;SDS011;11925;48.122;11.560;2022-09-09T08:40:33;2.47;;;1.02;;
23496;SDS011;11925;48.122;11.560;2022-09-09T08:43:10;2.58;;;0.80;;
23496;SDS011;11925;48.122;11.560;2022-09-09T08:45:42;1.45;;;0.80;;
23496;SDS011;11925;48.122;11.560;2022-09-09T08:48:22;1.45;;;0.98;;
23496;SDS011;11925;48.122;11.560;2022-09-09T08:51:06;2.55;;;1.00;;
23496;SDS011;11925;48.122;11.560;2022-09-09T08:53:38;2.17;;;1.00;;
23496;SDS011;11925;48.122;11.560;2022-09-09T08:56:11;1.75;;;0.93;;
23496;SDS011;11925;48.122;11.560;2022-09-09T08:58:47;2.95;;;1.10;;
23496;SDS011;11925;48.122;11.560;2022-09-09T09:01:26;4.20;;;1.38;;
23496;SDS011;11925;48.122;11.560;2022-09-09T09:04:31;2.70;;;1.20;;
23496;SDS011;11925;48.122;11.560;2022-09-09T09:07:15;1.65;;;1.10;;
23496;SDS011;11925;48.122;11.560;2022-09-09T09:10:01;3.22;;;1.58;;
23496;SDS011;11925;48.122;11.560;2022-09-09T09:12:50;4.10;;;1.35;;
23496;SDS011;11925;48.122;11.560;2022-09-09T09:15:21;4.07;;;1.40;;
23496;SDS011;11925;48.122;11.560;2022-09-09T09:17:57;5.45;;;1.73;;
23496;SDS011;11925;48.122;11.560;2022-09-09T09:20:28;3.80;;;1.88;;
23496;SDS011;11925;48.122;11.560;2022-09-09T09:23:05;4.63;;;1.38;;
23496;SDS011;11925;48.122;11.560;2022-09-09T09:25:42;3.20;;;1.45;;
23496;SDS011;11925;48.122;11.560;2022-09-09T09:28:13;2.13;;;1.15;;
23496;SDS011;11925;48.122;11.560;2022-09-09T09:30:52;4.97;;;1.80;;
23496;SDS011;11925;48.122;11.560;2022-09-09T09:33:25;2.72;;;1.30;;
23496;SDS011;11925;48.122;11.560;2022-09-09T09:36:00;1.90;;;1.15;;
23496;SDS011;11925;48.122;11.560;2022-09-09T09:38:31;2.28;;;1.40;;
23496;SDS011;11925;48.122;11.560;2022-09-09T09:41:31;5.15;;;1.50;;
23496;SDS011;11925;48.122;11.560;2022-09-09T09:44:03;3.17;;;1.50;;
23496;SDS011;11925;48.122;11.560;2022-09-09T09:46:34;2.67;;;1.50;;
23496;SDS011;11925;48.122;11.560;2022-09-09T09:49:09;3.90;;;1.60;;
23496;SDS011;11925;48.122;11.560;2022-09-09T09:51:39;2.65;;;1.30;;
23496;SDS011;11925;48.122;11.560;2022-09-09T09:54:13;3.13;;;1.30;;
23496;SDS011;11925;48.122;11.560;2022-09-09T09:56:51;5.55;;;1.55;;
23496;SDS011;11925;48.122;11.560;2022-09-09T09:59:20;3.10;;;1.40;;
23496;SDS011;11925;48.122;11.560;2022-09-09T10:02:19;2.80;;;1.17;;
23496;SDS011;11925;48.122;11.560;2022-09-09T10:05:00;1.88;;;1.15;;
23496;SDS011;11925;48.122;11.560;2022-09-09T10:07:30;2.70;;;1.20;;
23496;SDS011;11925;48.122;11.560;2022-09-09T10:10:01;1.92;;;1.05;;
23496;SDS011;11925;48.122;11.560;2022-09-09T10:12:35;4.00;;;1.47;;
23496;SDS011;11925;48.122;11.560;2022-09-09T10:15:07;3.92;;;1.00;;
23496;SDS011;11925;48.122;11.560;2022-09-09T10:17:42;5.25;;;1.40;;
23496;SDS011;11925;48.122;11.560;2022-09-09T10:20:17;2.08;;;1.23;;
23496;SDS011;11925;48.122;11.560;2022-09-09T10:22:50;3.08;;;1.40;;
23496;SDS011;11925;48.122;11.560;2022-09-09T10:25:26;2.55;;;1.08;;
23496;SDS011;11925;48.122;11.560;2022-09-09T10:30:48;2.47;;;1.50;;
23496;SDS011;11925;48.122;11.560;2022-09-09T10:33:21;3.65;;;1.42;;
23496;SDS011;11925;48.122;11.560;2022-09-09T10:35:57;3.08;;;1.48;;
23496;SDS011;11925;48.122;11.560;2022-09-09T10:38:33;5.18;;;0.95;;
23496;SDS011;11925;48.122;11.560;2022-09-09T10:41:11;2.60;;;1.13;;
23496;SDS011;11925;48.122;11.560;2022-09-09T10:43:46;2.50;;;1.20;;
23496;SDS011;11925;48.122;11.560;2022-09-09T10:46:27;3.05;;;1.00;;
23496;SDS011;11925;48.122;11.560;2022-09-09T10:49:02;2.00;;;1.10;;
23496;SDS011;11925;48.122;11.560;2022-09-09T10:51:36;2.28;;;0.90;;
23496;SDS011;11925;48.122;11.560;2022-09-09T10:54:14;2.28;;;1.02;;
23496;SDS011;11925;48.122;11.560;2022-09-09T10:56:49;2.40;;;1.17;;
23496;SDS011;11925;48.122;11.560;2022-09-09T10:59:23;3.05;;;1.23;;
23496;SDS011;11925;48.122;11.560;2022-09-09T11:01:55;3.47;;;1.10;;
23496;SDS011;11925;48.122;11.560;2022-09-09T11:06:54;2.50;;;1.10;;
23496;SDS011;11925;48.122;11.560;2022-09-09T11:09:24;1.50;;;0.90;;
23496;SDS011;11925;48.122;11.560;2022-09-09T11:11:55;3.17;;;0.95;;
23496;SDS011;11925;48.122;11.560;2022-09-09T11:14:26;2.10;;;1.00;;
23496;SDS011;11925;48.122;11.560;2022-09-09T11:17:03;1.48;;;0.80;;
23496;SDS011;11925;48.122;11.560;2022-09-09T11:19:33;1.52;;;0.80;;
23496;SDS011;11925;48.122;11.560;2022-09-09T11:22:03;1.35;;;0.98;;
23496;SDS011;11925;48.122;11.560;2022-09-09T11:24:35;3.22;;;1.00;;
23496;SDS011;11925;48.122;11.560;2022-09-09T11:27:09;2.40;;;0.88;;
23496;SDS011;11925;48.122;11.560;2022-09-09T11:32:30;1.35;;;0.70;;
23496;SDS011;11925;48.122;11.560;2022-09-09T11:35:02;2.25;;;1.50;;
23496;SDS011;11925;48.122;11.560;2022-09-09T11:37:42;3.10;;;1.30;;
23496;SDS011;11925;48.122;11.560;2022-09-09T11:40:15;1.83;;;1.13;;
23496;SDS011;11925;48.122;11.560;2022-09-09T11:42:46;2.53;;;1.00;;
23496;SDS011;11925;48.122;11.560;2022-09-09T11:45:20;2.83;;;0.90;;
23496;SDS011;11925;48.122;11.560;2022-09-09T11:47:53;1.77;;;0.60;;
23496;SDS011;11925;48.122;11.560;2022-09-09T11:50:27;1.38;;;0.70;;
23496;SDS011;11925;48.122;11.560;2022-09-09T11:53:04;1.52;;;0.70;;
23496;SDS011;11925;48.122;11.560;2022-09-09T11:55:34;4.25;;;0.80;;
23496;SDS011;11925;48.122;11.560;2022-09-09T11:58:04;1.00;;;0.70;;
23496;SDS011;11925;48.122;11.560;2022-09-09T12:00:35;1.52;;;0.70;;
23496;SDS011;11925;48.122;11.560;2022-09-09T12:03:04;2.33;;;0.70;;
23496;SDS011;11925;48.122;11.560;2022-09-09T12:05:36;1.67;;;0.70;;
23496;SDS011;11925;48.122;11.560;2022-09-09T12:08:07;2.50;;;0.80;;
23496;SDS011;11925;48.122;11.560;2022-09-09T12:10:38;1.48;;;0.80;;
23496;SDS011;11925;48.122;11.560;2022-09-09T12:13:09;4.25;;;0.75;;
23496;SDS011;11925;48.122;11.560;2022-09-09T12:15:46;2.75;;;0.80;;
23496;SDS011;11925;48.122;11.560;2022-09-09T12:18:20;1.42;;;0.75;;
23496;SDS011;11925;48.122;11.560;2022-09-09T12:20:53;4.85;;;0.73;;
23496;SDS011;11925;48.122;11.560;2022-09-09T12:23:25;2.00;;;0.70;;
23496;SDS011;11925;48.122;11.560;2022-09-09T12:26:01;2.05;;;0.70;;
23496;SDS011;11925;48.122;11.560;2022-09-09T12:28:44;2.05;;;0.88;;
23496;SDS011;11925;48.122;11.560;2022-09-09T12:31:15;2.05;;;1.00;;
23496;SDS011;11925;48.122;11.560;2022-09-09T12:33:45;1.25;;;0.77;;
23496;SDS011;11925;48.122;11.560;2022-09-09T12:36:15;3.63;;;0.98;;
23496;SDS011;11925;48.122;11.560;2022-09-09T12:38:45;1.30;;;0.65;;
23496;SDS011;11925;48.122;11.560;2022-09-09T12:41:20;1.77;;;0.70;;
23496;SDS011;11925;48.122;11.560;2022-09-09T12:44:02;1.48;;;0.73;;
23496;SDS011;11925;48.122;11.560;2022-09-09T12:46:32;1.63;;;0.75;;
23496;SDS011;11925;48.122;11.560;2022-09-09T12:49:03;1.77;;;0.50;;
23496;SDS011;11925;48.122;11.560;2022-09-09T12:51:32;1.67;;;0.60;;
23496;SDS011;11925;48.122;11.560;2022-09-09T12:54:02;1.58;;;0.80;;
23496;SDS011;11925;48.122;11.560;2022-09-09T12:56:32;2.78;;;0.80;;
23496;SDS011;11925;48.122;11.560;2022-09-09T12:59:03;1.73;;;0.60;;
23496;SDS011;11925;48.122;11.560;2022-09-09T13:01:32;2.03;;;0.80;;
23496;SDS011;11925;48.122;11.560;2022-09-09T13:04:01;1.65;;;0.90;;
23496;SDS011;11925;48.122;11.560;2022-09-09T13:06:31;1.40;;;0.63;;
23496;SDS011;11925;48.122;11.560;2022-09-09T13:09:01;1.73;;;0.68;;
23496;SDS011;11925;48.122;11.560;2022-09-09T13:11:30;2.63;;;0.70;;
23496;SDS011;11925;48.122;11.560;2022-09-09T13:14:03;2.08;;;0.80;;
23496;SDS011;11925;48.122;11.560;2022-09-09T13:16:33;1.80;;;0.75;;
23496;SDS011;11925;48.122;11.560;2022-09-09T13:19:08;1.90;;;1.10;;
23496;SDS011;11925;48.122;11.560;2022-09-09T13:21:38;2.00;;;0.90;;
23496;SDS011;11925;48.122;11.560;2022-09-09T13:24:21;1.85;;;0.80;;
23496;SDS011;11925;48.122;11.560;2022-09-09T13:26:55;1.33;;;0.77;;
23496;SDS011;11925;48.122;11.560;2022-09-09T13:29:25;1.65;;;0.85;;
23496;SDS011;11925;48.122;11.560;2022-09-09T13:31:54;1.63;;;0.80;;
23496;SDS011;11925;48.122;11.560;2022-09-09T13:34:32;1.15;;;0.70;;
23496;SDS011;11925;48.122;11.560;2022-09-09T13:37:02;2.72;;;0.70;;
23496;SDS011;11925;48.122;11.560;2022-09-09T13:39:32;2.15;;;0.70;;
23496;SDS011;11925;48.122;11.560;2022-09-09T13:42:02;2.28;;;0.70;;
23496;SDS011;11925;48.122;11.560;2022-09-09T13:44:33;0.90;;;0.52;;
23496;SDS011;11925;48.122;11.560;2022-09-09T13:47:04;2.75;;;0.60;;
23496;SDS011;11925;48.122;11.560;2022-09-09T13:49:36;2.13;;;0.70;;
23496;SDS011;11925;48.122;11.560;2022-09-09T13:52:06;2.70;;;0.80;;
23496;SDS011;11925;48.122;11.560;2022-09-09T13:54:37;1.25;;;0.63;;
23496;SDS011;11925;48.122;11.560;2022-09-09T13:57:12;2.75;;;0.60;;
23496;SDS011;11925;48.122;11.560;2022-09-09T13:59:44;2.08;;;0.60;;
23496;SDS011;11925;48.122;11.560;2022-09-09T14:02:30;1.27;;;0.90;;
23496;SDS011;11925;48.122;11.560;2022-09-09T14:05:00;1.25;;;0.52;;
23496;SDS011;11925;48.122;11.560;2022-09-09T14:07:28;2.78;;;1.00;;
23496;SDS011;11925;48.122;11.560;2022-09-09T14:09:58;1.67;;;0.80;;
23496;SDS011;11925;48.122;11.560;2022-09-09T14:12:27;2.88;;;0.77;;
23496;SDS011;11925;48.122;11.560;2022-09-09T14:14:57;1.80;;;0.60;;
23496;SDS011;11925;48.122;11.560;2022-09-09T14:17:26;1.90;;;0.63;;
23496;SDS011;11925;48.122;11.560;2022-09-09T14:19:57;0.70;;;0.50;;
23496;SDS011;11925;48.122;11.560;2022-09-09T14:22:26;1.52;;;0.70;;
23496;SDS011;11925;48.122;11.560;2022-09-09T14:24:55;1.73;;;0.68;;
23496;SDS011;11925;48.122;11.560;2022-09-09T14:27:24;1.35;;;0.60;;
23496;SDS011;11925;48.122;11.560;2022-09-09T14:29:53;1.13;;;0.60;;
23496;SDS011;11925;48.122;11.560;2022-09-09T14:32:23;1.25;;;0.60;;
23496;SDS011;11925;48.122;11.560;2022-09-09T14:34:52;2.05;;;0.80;;
23496;SDS011;11925;48.122;11.560;2022-09-09T14:37:20;4.32;;;1.00;;
23496;SDS011;11925;48.122;11.560;2022-09-09T14:39:49;2.78;;;1.10;;
23496;SDS011;11925;48.122;11.560;2022-09-09T14:42:18;2.97;;;0.88;;
23496;SDS011;11925;48.122;11.560;2022-09-09T14:44:46;2.70;;;1.10;;
23496;SDS011;11925;48.122;11.560;2022-09-09T14:47:15;1.58;;;0.95;;
23496;SDS011;11925;48.122;11.560;2022-09-09T14:49:45;2.78;;;0.75;;
23496;SDS011;11925;48.122;11.560;2022-09-09T14:52:16;3.53;;;0.85;;
23496;SDS011;11925;48.122;11.560;2022-09-09T14:54:44;2.85;;;0.98;;
23496;SDS011;11925;48.122;11.560;2022-09-09T14:57:13;1.77;;;1.10;;
23496;SDS011;11925;48.122;11.560;2022-09-09T14:59:42;4.53;;;0.80;;
23496;SDS011;11925;48.122;11.560;2022-09-09T15:02:10;2.92;;;0.65;;
23496;SDS011;11925;48.122;11.560;2022-09-09T15:04:40;3.28;;;0.80;;
23496;SDS011;11925;48.122;11.560;2022-09-09T15:07:11;2.88;;;0.70;;
23496;SDS011;11925;48.122;11.560;2022-09-09T15:09:40;2.13;;;0.60;;
23496;SDS011;11925;48.122;11.560;2022-09-09T15:12:09;1.65;;;0.60;;
23496;SDS011;11925;48.122;11.560;2022-09-09T15:14:37;2.97;;;0.88;;
23496;SDS011;11925;48.122;11.560;2022-09-09T15:17:06;1.90;;;0.70;;
23496;SDS011;11925;48.122;11.560;2022-09-09T15:19:34;1.88;;;0.70;;
23496;SDS011;11925;48.122;11.560;2022-09-09T15:22:03;1.80;;;0.63;;
23496;SDS011;11925;48.122;11.560;2022-09-09T15:24:35;1.80;;;1.05;;
23496;SDS011;11925;48.122;11.560;2022-09-09T15:27:03;1.60;;;0.88;;